createdAt,value
2022-10-06T00:00:16.192Z,0.00
2022-10-06T00:01:16.277Z,0.00
2022-10-06T00:02:16.217Z,0.00
2022-10-06T00:03:16.181Z,0.00
2022-10-06T00:04:16.183Z,0.00
2022-10-06T00:05:16.182Z,0.00
2022-10-06T00:06:16.177Z,0.00
2022-10-06T00:07:16.182Z,0.00
2022-10-06T00:08:16.180Z,0.00
2022-10-06T00:09:16.202Z,0.00
2022-10-06T00:10:16.179Z,0.00
2022-10-06T00:11:16.177Z,0.00
2022-10-06T00:12:16.184Z,0.00
2022-10-06T00:13:16.178Z,0.00
2022-10-06T00:14:16.183Z,0.00
2022-10-06T00:15:16.183Z,0.00
2022-10-06T00:16:16.230Z,0.00
2022-10-06T00:17:16.176Z,0.00
2022-10-06T00:18:16.177Z,0.00
2022-10-06T00:19:16.175Z,0.00
2022-10-06T00:20:16.179Z,0.00
2022-10-06T00:21:16.173Z,0.00
2022-10-06T00:22:16.188Z,0.00
2022-10-06T00:23:16.181Z,0.00
2022-10-06T00:24:16.179Z,0.00
2022-10-06T00:25:16.198Z,0.00
2022-10-06T00:26:16.174Z,0.00
2022-10-06T00:27:16.174Z,0.00
2022-10-06T00:28:16.314Z,0.00
2022-10-06T00:29:16.176Z,0.00
2022-10-06T00:30:16.497Z,0.00
2022-10-06T00:31:16.255Z,0.00
2022-10-06T00:32:16.172Z,0.00
2022-10-06T00:33:16.173Z,0.00
2022-10-06T00:34:16.177Z,0.00
2022-10-06T00:35:16.173Z,0.00
2022-10-06T00:36:16.171Z,0.00
2022-10-06T00:37:16.171Z,0.00
2022-10-06T00:38:16.175Z,0.00
2022-10-06T00:39:16.169Z,0.00
2022-10-06T00:40:16.176Z,0.00
2022-10-06T00:41:16.228Z,0.00
2022-10-06T00:42:16.172Z,0.00
2022-10-06T00:43:16.167Z,0.00
2022-10-06T00:44:16.165Z,0.00
2022-10-06T00:45:16.164Z,0.00
2022-10-06T00:46:16.214Z,0.00
2022-10-06T00:47:16.174Z,0.00
2022-10-06T00:48:16.178Z,0.00
2022-10-06T00:49:16.167Z,0.00
2022-10-06T00:50:16.166Z,0.00
2022-10-06T00:51:16.166Z,0.00
2022-10-06T00:52:16.170Z,0.00
2022-10-06T00:53:16.165Z,0.00
2022-10-06T00:54:16.169Z,0.00
2022-10-06T00:55:16.165Z,0.00
2022-10-06T00:56:16.172Z,0.00
2022-10-06T00:57:16.184Z,0.00
2022-10-06T00:58:16.168Z,0.00
2022-10-06T00:59:16.164Z,0.00
2022-10-06T01:00:16.166Z,0.00
2022-10-06T01:01:16.181Z,0.00
2022-10-06T01:02:16.237Z,0.00
2022-10-06T01:03:16.160Z,0.00
2022-10-06T01:04:16.161Z,0.00
2022-10-06T01:05:16.163Z,0.00
2022-10-06T01:06:16.165Z,0.00
2022-10-06T01:07:16.161Z,0.00
2022-10-06T01:08:16.165Z,0.00
2022-10-06T01:09:16.162Z,0.00
2022-10-06T01:10:16.159Z,0.00
2022-10-06T01:11:16.161Z,0.00
2022-10-06T01:12:16.162Z,0.00
2022-10-06T01:13:16.230Z,0.00
2022-10-06T01:14:16.162Z,0.00
2022-10-06T01:15:16.158Z,0.00
2022-10-06T01:16:16.243Z,0.00
2022-10-06T01:17:16.154Z,0.00
2022-10-06T01:18:16.157Z,0.00
2022-10-06T01:19:16.158Z,0.00
2022-10-06T01:20:16.161Z,0.00
2022-10-06T01:21:16.158Z,0.00
2022-10-06T01:22:16.156Z,0.00
2022-10-06T01:23:16.155Z,0.00
2022-10-06T01:24:16.158Z,0.00
2022-10-06T01:25:16.152Z,0.00
2022-10-06T01:26:16.485Z,0.00
2022-10-06T01:27:16.155Z,0.00
2022-10-06T01:28:16.229Z,0.00
2022-10-06T01:29:16.188Z,0.00
2022-10-06T01:30:16.157Z,0.00
2022-10-06T01:31:16.223Z,0.00
2022-10-06T01:32:16.155Z,0.00
2022-10-06T01:33:16.149Z,0.00
2022-10-06T01:34:16.156Z,0.00
2022-10-06T01:35:16.149Z,0.00
2022-10-06T01:36:16.150Z,0.00
2022-10-06T01:37:16.149Z,0.00
2022-10-06T01:38:16.149Z,0.00
2022-10-06T01:39:16.151Z,0.00
2022-10-06T01:40:16.154Z,0.00
2022-10-06T01:41:16.173Z,0.00
2022-10-06T01:42:16.154Z,0.00
2022-10-06T01:43:16.152Z,0.00
2022-10-06T01:44:16.152Z,0.00
2022-10-06T01:45:16.227Z,0.00
2022-10-06T01:46:16.241Z,0.00
2022-10-06T01:47:16.151Z,0.00
2022-10-06T01:48:16.150Z,0.00
2022-10-06T01:49:16.153Z,0.00
2022-10-06T01:50:16.146Z,0.00
2022-10-06T01:51:16.179Z,0.00
2022-10-06T01:52:16.148Z,0.00
2022-10-06T01:53:16.144Z,0.00
2022-10-06T01:54:16.148Z,0.00
2022-10-06T01:55:16.144Z,0.00
2022-10-06T01:56:16.145Z,0.00
2022-10-06T01:57:16.144Z,0.00
2022-10-06T01:58:16.148Z,0.00
2022-10-06T01:59:16.144Z,0.00
2022-10-06T02:00:16.145Z,0.00
2022-10-06T02:01:16.335Z,0.00
2022-10-06T02:02:16.144Z,0.00
2022-10-06T02:03:16.146Z,0.00
2022-10-06T02:04:16.204Z,0.00
2022-10-06T02:05:16.145Z,0.00
2022-10-06T02:06:16.192Z,0.00
2022-10-06T02:07:16.144Z,0.00
2022-10-06T02:08:16.149Z,0.00
2022-10-06T02:09:16.144Z,0.00
2022-10-06T02:10:16.138Z,0.00
2022-10-06T02:11:16.140Z,0.00
2022-10-06T02:12:16.148Z,0.00
2022-10-06T02:13:16.138Z,0.00
2022-10-06T02:14:16.148Z,0.00
2022-10-06T02:15:16.137Z,0.00
2022-10-06T02:16:16.230Z,0.00
2022-10-06T02:17:16.180Z,0.00
2022-10-06T02:18:16.178Z,0.00
2022-10-06T02:19:16.141Z,0.00
2022-10-06T02:20:16.142Z,0.00
2022-10-06T02:21:16.144Z,0.00
2022-10-06T02:22:16.140Z,0.00
2022-10-06T02:23:16.140Z,0.00
2022-10-06T02:24:16.142Z,0.00
2022-10-06T02:25:16.142Z,0.00
2022-10-06T02:26:16.145Z,0.00
2022-10-06T02:27:16.144Z,0.00
2022-10-06T02:28:16.189Z,0.00
2022-10-06T02:29:16.137Z,0.00
2022-10-06T02:30:16.141Z,0.00
2022-10-06T02:31:16.197Z,0.00
2022-10-06T02:32:16.152Z,0.00
2022-10-06T02:33:16.236Z,0.00
2022-10-06T02:34:16.141Z,0.00
2022-10-06T02:35:16.134Z,0.00
2022-10-06T02:36:16.139Z,0.00
2022-10-06T02:37:16.140Z,0.00
2022-10-06T02:38:16.140Z,0.00
2022-10-06T02:39:16.136Z,0.00
2022-10-06T02:40:16.138Z,0.00
2022-10-06T02:41:16.155Z,0.00
2022-10-06T02:42:16.138Z,0.00
2022-10-06T02:43:16.134Z,0.00
2022-10-06T02:44:16.143Z,0.00
2022-10-06T02:45:16.137Z,0.00
2022-10-06T02:46:16.191Z,0.00
2022-10-06T02:47:16.134Z,0.00
2022-10-06T02:48:16.242Z,0.00
2022-10-06T02:49:16.152Z,0.00
2022-10-06T02:50:16.138Z,0.00
2022-10-06T02:51:16.134Z,0.00
2022-10-06T02:52:16.141Z,0.00
2022-10-06T02:53:16.137Z,0.00
2022-10-06T02:54:16.140Z,0.00
2022-10-06T02:55:16.137Z,0.00
2022-10-06T02:56:16.246Z,0.00
2022-10-06T02:57:16.128Z,0.00
2022-10-06T02:58:16.145Z,0.00
2022-10-06T02:59:16.131Z,0.00
2022-10-06T03:00:16.136Z,0.00
2022-10-06T03:01:16.231Z,0.00
2022-10-06T03:02:16.261Z,0.00
2022-10-06T03:03:16.144Z,0.00
2022-10-06T03:04:16.144Z,0.00
2022-10-06T03:05:16.176Z,0.00
2022-10-06T03:06:16.152Z,0.00
2022-10-06T03:07:16.133Z,0.00
2022-10-06T03:08:16.132Z,0.00
2022-10-06T03:09:16.127Z,0.00
2022-10-06T03:10:16.135Z,0.00
2022-10-06T03:11:16.126Z,0.00
2022-10-06T03:12:16.131Z,0.00
2022-10-06T03:13:16.125Z,0.00
2022-10-06T03:14:20.737Z,0.00
2022-10-06T03:15:16.126Z,0.00
2022-10-06T03:16:16.149Z,0.00
2022-10-06T03:17:16.127Z,0.00
2022-10-06T03:18:16.128Z,0.00
2022-10-06T03:19:16.126Z,0.00
2022-10-06T03:20:16.131Z,0.00
2022-10-06T03:21:16.144Z,0.00
2022-10-06T03:22:16.133Z,0.00
2022-10-06T03:23:16.128Z,0.00
2022-10-06T03:24:16.128Z,0.00
2022-10-06T03:25:16.125Z,0.00
2022-10-06T03:26:16.123Z,0.00
2022-10-06T03:27:16.123Z,0.00
2022-10-06T03:28:16.228Z,0.00
2022-10-06T03:29:16.120Z,0.00
2022-10-06T03:30:16.128Z,0.00
2022-10-06T03:31:16.204Z,0.00
2022-10-06T03:32:16.125Z,0.00
2022-10-06T03:33:16.125Z,0.00
2022-10-06T03:34:16.120Z,0.00
2022-10-06T03:35:16.123Z,0.00
2022-10-06T03:36:16.124Z,0.00
2022-10-06T03:37:16.139Z,0.00
2022-10-06T03:38:16.120Z,0.00
2022-10-06T03:39:16.125Z,0.00
2022-10-06T03:40:16.124Z,0.00
2022-10-06T03:41:16.130Z,0.00
2022-10-06T03:42:16.122Z,0.00
2022-10-06T03:43:16.124Z,0.00
2022-10-06T03:44:16.126Z,0.00
2022-10-06T03:45:16.203Z,0.00
2022-10-06T03:46:16.187Z,0.00
2022-10-06T03:47:17.431Z,0.00
2022-10-06T03:48:16.120Z,0.00
2022-10-06T03:49:16.117Z,0.00
2022-10-06T03:50:16.119Z,0.00
2022-10-06T03:51:16.123Z,0.00
2022-10-06T03:52:16.116Z,0.00
2022-10-06T03:53:16.142Z,0.00
2022-10-06T03:54:16.117Z,0.00
2022-10-06T03:55:16.116Z,0.00
2022-10-06T03:56:16.121Z,0.00
2022-10-06T03:57:16.115Z,0.00
2022-10-06T03:58:16.116Z,0.00
2022-10-06T03:59:16.118Z,0.00
2022-10-06T04:00:16.117Z,0.00
2022-10-06T04:01:16.205Z,0.00
2022-10-06T04:02:16.166Z,0.00
2022-10-06T04:03:16.118Z,0.00
2022-10-06T04:04:16.118Z,0.00
2022-10-06T04:05:16.117Z,0.00
2022-10-06T04:06:16.125Z,0.00
2022-10-06T04:07:16.115Z,0.00
2022-10-06T04:08:16.119Z,0.00
2022-10-06T04:09:16.248Z,0.00
2022-10-06T04:10:16.118Z,0.00
2022-10-06T04:11:16.118Z,0.00
2022-10-06T04:12:16.114Z,0.00
2022-10-06T04:13:16.113Z,0.00
2022-10-06T04:14:16.116Z,0.00
2022-10-06T04:15:16.115Z,0.00
2022-10-06T04:16:16.179Z,0.00
2022-10-06T04:17:16.116Z,0.00
2022-10-06T04:18:16.115Z,0.00
2022-10-06T04:19:16.120Z,0.00
2022-10-06T04:20:16.142Z,0.00
2022-10-06T04:21:16.112Z,0.00
2022-10-06T04:22:16.112Z,0.00
2022-10-06T04:23:16.119Z,0.00
2022-10-06T04:24:16.111Z,0.00
2022-10-06T04:25:16.138Z,0.00
2022-10-06T04:26:16.110Z,0.00
2022-10-06T04:27:16.125Z,0.00
2022-10-06T04:28:16.160Z,0.00
2022-10-06T04:29:16.116Z,0.00
2022-10-06T04:30:16.109Z,0.00
2022-10-06T04:31:16.187Z,0.00
2022-10-06T04:32:16.110Z,0.00
2022-10-06T04:33:16.113Z,0.00
2022-10-06T04:34:16.108Z,0.00
2022-10-06T04:35:16.116Z,0.00
2022-10-06T04:36:16.114Z,0.00
2022-10-06T04:37:16.110Z,0.00
2022-10-06T04:38:16.107Z,0.00
2022-10-06T04:39:16.111Z,0.00
2022-10-06T04:40:16.113Z,0.00
2022-10-06T04:41:16.137Z,0.00
2022-10-06T04:42:16.110Z,0.00
2022-10-06T04:43:16.108Z,0.00
2022-10-06T04:44:16.108Z,0.00
2022-10-06T04:45:16.112Z,0.00
2022-10-06T04:46:41.386Z,0.00
2022-10-06T04:47:16.110Z,0.00
2022-10-06T04:48:16.105Z,0.00
2022-10-06T04:49:20.039Z,0.00
2022-10-06T04:50:16.112Z,0.00
2022-10-06T04:51:16.105Z,0.00
2022-10-06T04:52:16.104Z,0.00
2022-10-06T04:53:16.109Z,0.00
2022-10-06T04:54:16.107Z,0.00
2022-10-06T04:55:16.112Z,0.00
2022-10-06T04:56:16.107Z,0.00
2022-10-06T04:57:16.137Z,0.00
2022-10-06T04:58:16.103Z,0.00
2022-10-06T04:59:16.119Z,0.00
2022-10-06T05:00:16.105Z,0.00
2022-10-06T05:01:16.200Z,0.00
2022-10-06T05:02:16.184Z,0.00
2022-10-06T05:03:16.105Z,0.00
2022-10-06T05:04:16.103Z,0.00
2022-10-06T05:05:16.102Z,0.00
2022-10-06T05:06:16.106Z,0.00
2022-10-06T05:07:16.105Z,0.00
2022-10-06T05:08:16.104Z,0.00
2022-10-06T05:09:16.158Z,0.00
2022-10-06T05:10:16.102Z,0.00
2022-10-06T05:11:18.153Z,0.00
2022-10-06T05:12:16.121Z,0.00
2022-10-06T05:13:16.123Z,0.00
2022-10-06T05:14:16.098Z,0.00
2022-10-06T05:15:16.103Z,0.00
2022-10-06T05:16:16.202Z,0.00
2022-10-06T05:17:16.100Z,0.00
2022-10-06T05:18:16.098Z,0.00
2022-10-06T05:19:16.098Z,0.00
2022-10-06T05:20:16.101Z,0.00
2022-10-06T05:21:16.103Z,0.00
2022-10-06T05:22:16.097Z,5.63
2022-10-06T05:23:16.102Z,5.63
2022-10-06T05:24:16.101Z,5.63
2022-10-06T05:25:16.101Z,5.63
2022-10-06T05:26:16.099Z,5.63
2022-10-06T05:27:16.095Z,5.63
2022-10-06T05:28:16.150Z,5.63
2022-10-06T05:29:16.130Z,5.63
2022-10-06T05:30:16.099Z,11.25
2022-10-06T05:31:16.143Z,11.25
2022-10-06T05:32:16.099Z,11.25
2022-10-06T05:33:16.099Z,11.25
2022-10-06T05:34:16.099Z,11.25
2022-10-06T05:35:16.095Z,16.88
2022-10-06T05:36:16.095Z,16.88
2022-10-06T05:37:16.096Z,16.88
2022-10-06T05:38:16.095Z,22.50
2022-10-06T05:39:16.097Z,22.50
2022-10-06T05:40:16.100Z,28.13
2022-10-06T05:41:16.095Z,22.50
2022-10-06T05:42:16.097Z,22.50
2022-10-06T05:43:16.099Z,28.13
2022-10-06T05:44:16.100Z,28.13
2022-10-06T05:45:16.132Z,28.13
2022-10-06T05:46:16.179Z,33.75
2022-10-06T05:47:16.098Z,39.38
2022-10-06T05:48:16.096Z,33.75
2022-10-06T05:49:16.094Z,33.75
2022-10-06T05:50:16.094Z,33.75
2022-10-06T05:51:16.097Z,33.75
2022-10-06T05:52:16.090Z,39.38
2022-10-06T05:53:16.091Z,39.38
2022-10-06T05:54:16.094Z,39.38
2022-10-06T05:55:16.104Z,39.38
2022-10-06T05:56:16.100Z,45.00
2022-10-06T05:57:16.094Z,45.00
2022-10-06T05:58:18.498Z,39.38
2022-10-06T05:59:16.092Z,39.38
2022-10-06T06:00:16.103Z,50.63
2022-10-06T06:01:16.187Z,67.50
2022-10-06T06:02:16.201Z,84.38
2022-10-06T06:03:16.100Z,95.63
2022-10-06T06:04:16.090Z,84.38
2022-10-06T06:05:16.097Z,73.13
2022-10-06T06:06:16.094Z,67.50
2022-10-06T06:07:16.093Z,61.88
2022-10-06T06:08:16.093Z,56.25
2022-10-06T06:09:16.090Z,56.25
2022-10-06T06:10:16.093Z,56.25
2022-10-06T06:11:16.106Z,73.13
2022-10-06T06:12:16.090Z,78.75
2022-10-06T06:13:16.091Z,73.13
2022-10-06T06:14:16.092Z,73.13
2022-10-06T06:15:16.092Z,73.13
2022-10-06T06:16:16.159Z,73.13
2022-10-06T06:17:16.121Z,61.88
2022-10-06T06:18:16.090Z,67.50
2022-10-06T06:19:16.092Z,61.88
2022-10-06T06:20:16.091Z,73.13
2022-10-06T06:21:16.088Z,84.38
2022-10-06T06:22:16.088Z,84.38
2022-10-06T06:23:16.091Z,90.00
2022-10-06T06:24:16.087Z,90.00
2022-10-06T06:25:16.110Z,84.38
2022-10-06T06:26:16.088Z,95.63
2022-10-06T06:27:16.087Z,95.63
2022-10-06T06:28:16.166Z,95.63
2022-10-06T06:29:16.109Z,101.25
2022-10-06T06:30:16.088Z,101.25
2022-10-06T06:31:19.893Z,101.25
2022-10-06T06:32:16.095Z,106.88
2022-10-06T06:33:16.132Z,106.88
2022-10-06T06:34:16.087Z,106.88
2022-10-06T06:35:16.090Z,106.88
2022-10-06T06:36:16.085Z,112.50
2022-10-06T06:37:16.086Z,112.50
2022-10-06T06:38:16.086Z,112.50
2022-10-06T06:39:16.089Z,118.13
2022-10-06T06:40:16.091Z,118.13
2022-10-06T06:41:16.085Z,118.13
2022-10-06T06:42:16.088Z,123.75
2022-10-06T06:43:16.087Z,123.75
2022-10-06T06:44:16.087Z,123.75
2022-10-06T06:45:16.087Z,129.38
2022-10-06T06:46:16.254Z,129.38
2022-10-06T06:47:16.088Z,129.38
2022-10-06T06:48:16.082Z,135.00
2022-10-06T06:49:16.109Z,135.00
2022-10-06T06:50:16.086Z,112.50
2022-10-06T06:51:16.085Z,140.63
2022-10-06T06:52:16.082Z,140.63
2022-10-06T06:53:16.352Z,157.50
2022-10-06T06:54:16.085Z,157.50
2022-10-06T06:55:16.083Z,151.88
2022-10-06T06:56:16.083Z,157.50
2022-10-06T06:57:16.083Z,101.25
2022-10-06T06:58:16.078Z,185.63
2022-10-06T06:59:16.079Z,208.13
2022-10-06T07:00:16.088Z,191.25
2022-10-06T07:01:16.151Z,225.00
2022-10-06T07:02:16.131Z,185.63
2022-10-06T07:03:24.127Z,241.88
2022-10-06T07:04:16.084Z,185.63
2022-10-06T07:05:16.104Z,208.13
2022-10-06T07:06:16.082Z,225.00
2022-10-06T07:07:16.077Z,258.75
2022-10-06T07:08:16.077Z,208.13
2022-10-06T07:09:16.077Z,219.38
2022-10-06T07:10:16.077Z,253.13
2022-10-06T07:11:16.076Z,236.25
2022-10-06T07:12:16.094Z,241.88
2022-10-06T07:13:17.357Z,253.13
2022-10-06T07:14:16.087Z,253.13
2022-10-06T07:15:16.080Z,225.00
2022-10-06T07:16:16.117Z,219.38
2022-10-06T07:17:16.080Z,196.88
2022-10-06T07:18:16.093Z,236.25
2022-10-06T07:19:16.078Z,264.38
2022-10-06T07:20:16.085Z,202.50
2022-10-06T07:21:16.105Z,298.13
2022-10-06T07:22:16.074Z,286.88
2022-10-06T07:23:16.079Z,185.63
2022-10-06T07:24:16.078Z,331.88
2022-10-06T07:25:16.075Z,416.25
2022-10-06T07:26:16.078Z,320.63
2022-10-06T07:27:16.081Z,354.38
2022-10-06T07:28:16.130Z,151.88
2022-10-06T07:29:16.081Z,168.75
2022-10-06T07:30:16.077Z,489.38
2022-10-06T07:31:16.135Z,286.88
2022-10-06T07:32:16.077Z,180.00
2022-10-06T07:33:16.074Z,399.38
2022-10-06T07:34:16.083Z,354.38
2022-10-06T07:35:16.077Z,371.25
2022-10-06T07:36:16.081Z,348.75
2022-10-06T07:37:16.100Z,292.50
2022-10-06T07:38:16.078Z,331.88
2022-10-06T07:39:16.080Z,180.00
2022-10-06T07:40:16.077Z,157.50
2022-10-06T07:41:20.315Z,174.38
2022-10-06T07:42:16.075Z,483.75
2022-10-06T07:43:16.082Z,281.25
2022-10-06T07:44:16.081Z,320.63
2022-10-06T07:45:16.076Z,241.88
2022-10-06T07:46:16.227Z,388.13
2022-10-06T07:47:16.082Z,185.63
2022-10-06T07:48:16.077Z,174.38
2022-10-06T07:49:16.081Z,163.13
2022-10-06T07:50:16.076Z,455.63
2022-10-06T07:51:16.078Z,388.13
2022-10-06T07:52:16.077Z,388.13
2022-10-06T07:53:16.112Z,646.88
2022-10-06T07:54:16.080Z,748.13
2022-10-06T07:55:16.081Z,1215.00
2022-10-06T07:56:16.077Z,1215.00
2022-10-06T07:57:16.080Z,736.88
2022-10-06T07:58:16.080Z,281.25
2022-10-06T07:59:16.081Z,382.50
2022-10-06T08:00:16.090Z,343.13
2022-10-06T08:01:16.206Z,1102.50
2022-10-06T08:02:16.179Z,1068.75
2022-10-06T08:03:16.158Z,641.25
2022-10-06T08:04:16.087Z,1001.25
2022-10-06T08:05:16.084Z,303.75
2022-10-06T08:06:16.085Z,326.25
2022-10-06T08:07:16.083Z,416.25
2022-10-06T08:08:16.088Z,320.63
2022-10-06T08:09:16.114Z,1372.50
2022-10-06T08:10:16.096Z,2115.00
2022-10-06T08:11:16.095Z,2025.00
2022-10-06T08:12:16.093Z,337.50
2022-10-06T08:13:16.088Z,315.00
2022-10-06T08:14:16.086Z,1468.13
2022-10-06T08:15:16.091Z,241.88
2022-10-06T08:16:16.177Z,2126.25
2022-10-06T08:17:16.089Z,2098.13
2022-10-06T08:18:33.686Z,2176.88
2022-10-06T08:19:16.099Z,1749.38
2022-10-06T08:20:16.091Z,2283.75
2022-10-06T08:21:16.090Z,2283.75
2022-10-06T08:22:16.096Z,2261.25
2022-10-06T08:23:16.093Z,2570.63
2022-10-06T08:24:16.096Z,466.88
2022-10-06T08:25:16.624Z,2491.88
2022-10-06T08:26:16.098Z,2475.00
2022-10-06T08:27:16.099Z,2385.00
2022-10-06T08:28:16.148Z,399.38
2022-10-06T08:29:16.104Z,376.88
2022-10-06T08:30:16.102Z,1749.38
2022-10-06T08:31:16.186Z,1029.38
2022-10-06T08:32:16.104Z,506.25
2022-10-06T08:33:18.148Z,950.63
2022-10-06T08:34:16.124Z,725.63
2022-10-06T08:35:16.109Z,315.00
2022-10-06T08:36:16.113Z,911.25
2022-10-06T08:37:20.285Z,939.38
2022-10-06T08:38:16.114Z,427.50
2022-10-06T08:39:16.113Z,1434.38
2022-10-06T08:40:16.122Z,2345.63
2022-10-06T08:41:16.134Z,2098.13
2022-10-06T08:42:16.122Z,1518.75
2022-10-06T08:43:16.123Z,2812.50
2022-10-06T08:44:16.129Z,956.25
2022-10-06T08:45:16.133Z,405.00
2022-10-06T08:46:18.737Z,2857.50
2022-10-06T08:47:16.131Z,303.75
2022-10-06T08:48:16.140Z,326.25
2022-10-06T08:49:16.136Z,478.13
2022-10-06T08:50:16.139Z,1063.13
2022-10-06T08:51:16.141Z,534.38
2022-10-06T08:52:16.144Z,2801.25
2022-10-06T08:53:16.423Z,3200.63
2022-10-06T08:54:16.148Z,658.13
2022-10-06T08:55:16.148Z,3420.00
2022-10-06T08:56:16.162Z,3459.38
2022-10-06T08:57:16.195Z,495.00
2022-10-06T08:58:16.163Z,3256.88
2022-10-06T08:59:16.169Z,3285.00
2022-10-06T09:00:19.564Z,393.75
2022-10-06T09:01:16.202Z,3515.63
2022-10-06T09:02:16.206Z,680.63
2022-10-06T09:03:16.186Z,410.63
2022-10-06T09:04:16.190Z,354.38
2022-10-06T09:05:16.197Z,483.75
2022-10-06T09:06:16.196Z,3442.50
2022-10-06T09:07:16.205Z,3386.25
2022-10-06T09:08:16.209Z,3420.00
2022-10-06T09:09:16.206Z,3240.00
2022-10-06T09:10:16.214Z,331.88
2022-10-06T09:11:16.217Z,292.50
2022-10-06T09:12:16.226Z,2430.00
2022-10-06T09:13:20.974Z,3723.75
2022-10-06T09:14:16.233Z,3633.75
2022-10-06T09:15:16.238Z,3549.38
2022-10-06T09:16:16.290Z,3594.38
2022-10-06T09:17:16.257Z,3622.50
2022-10-06T09:18:16.269Z,3712.50
2022-10-06T09:19:16.263Z,3802.50
2022-10-06T09:20:16.265Z,3639.38
2022-10-06T09:21:16.275Z,3532.50
2022-10-06T09:22:16.282Z,3465.00
2022-10-06T09:23:16.305Z,3442.50
2022-10-06T09:24:16.316Z,3526.88
2022-10-06T09:25:16.303Z,3656.25
2022-10-06T09:26:16.310Z,3684.38
2022-10-06T09:27:16.319Z,3763.13
2022-10-06T09:28:16.416Z,3841.88
2022-10-06T09:29:16.426Z,3881.25
2022-10-06T09:30:16.344Z,3982.50
2022-10-06T09:31:16.445Z,4252.50
2022-10-06T09:32:16.365Z,4331.25
2022-10-06T09:33:16.374Z,4078.13
2022-10-06T09:34:16.387Z,3937.50
2022-10-06T09:35:16.400Z,4066.88
2022-10-06T09:36:16.404Z,4117.50
2022-10-06T09:37:16.413Z,4325.63
2022-10-06T09:38:16.425Z,4393.13
2022-10-06T09:39:16.439Z,2868.75
2022-10-06T09:40:16.444Z,2739.38
2022-10-06T09:41:16.461Z,1440.00
2022-10-06T09:42:16.475Z,1035.00
2022-10-06T09:43:16.481Z,4241.25
2022-10-06T09:44:16.498Z,1023.75
2022-10-06T09:45:16.523Z,725.63
2022-10-06T09:46:16.521Z,4224.38
2022-10-06T09:47:16.530Z,4213.13
2022-10-06T09:48:18.151Z,4140.00
2022-10-06T09:49:16.551Z,4066.88
2022-10-06T09:50:16.563Z,4201.88
2022-10-06T09:51:16.580Z,4055.63
2022-10-06T09:52:16.587Z,4066.88
2022-10-06T09:53:16.609Z,4106.25
2022-10-06T09:54:16.615Z,4111.88
2022-10-06T09:55:16.624Z,4111.88
2022-10-06T09:56:16.639Z,4111.88
2022-10-06T09:57:16.645Z,3988.13
2022-10-06T09:58:16.655Z,4078.13
2022-10-06T09:59:16.666Z,3993.75
2022-10-06T10:00:16.797Z,3875.63
2022-10-06T10:01:16.762Z,3026.25
2022-10-06T10:02:16.710Z,3695.63
2022-10-06T10:03:16.757Z,4314.38
2022-10-06T10:04:21.258Z,4618.13
2022-10-06T10:05:16.748Z,4235.63
2022-10-06T10:06:16.756Z,3301.88
2022-10-06T10:07:16.769Z,3172.50
2022-10-06T10:08:16.788Z,3504.38
2022-10-06T10:09:19.052Z,1012.50
2022-10-06T10:10:16.809Z,3943.13
2022-10-06T10:11:16.824Z,3988.13
2022-10-06T10:12:16.835Z,4038.75
2022-10-06T10:13:16.844Z,4050.00
2022-10-06T10:14:16.864Z,3864.38
2022-10-06T10:15:16.879Z,3470.63
2022-10-06T10:16:16.920Z,573.75
2022-10-06T10:17:16.917Z,540.00
2022-10-06T10:18:16.909Z,3628.13
2022-10-06T10:19:16.922Z,3403.13
2022-10-06T10:20:16.933Z,3223.13
2022-10-06T10:21:16.948Z,3566.25
2022-10-06T10:22:16.957Z,3138.75
2022-10-06T10:23:16.971Z,3780.00
2022-10-06T10:24:16.985Z,3937.50
2022-10-06T10:25:16.996Z,4066.88
2022-10-06T10:26:17.010Z,4275.00
2022-10-06T10:27:17.020Z,4432.50
2022-10-06T10:28:17.134Z,1726.88
2022-10-06T10:29:17.048Z,4246.88
2022-10-06T10:30:17.061Z,4320.00
2022-10-06T10:31:17.103Z,4381.88
2022-10-06T10:32:17.084Z,2615.63
2022-10-06T10:33:17.195Z,4117.50
2022-10-06T10:34:25.065Z,4134.38
2022-10-06T10:35:17.124Z,4207.50
2022-10-06T10:36:17.125Z,4173.75
2022-10-06T10:37:17.139Z,4044.38
2022-10-06T10:38:17.150Z,2925.00
2022-10-06T10:39:17.162Z,1743.75
2022-10-06T10:40:17.177Z,1462.50
2022-10-06T10:41:17.186Z,1434.38
2022-10-06T10:42:17.259Z,1411.88
2022-10-06T10:43:17.212Z,1411.88
2022-10-06T10:44:17.222Z,1451.25
2022-10-06T10:45:17.231Z,1288.13
2022-10-06T10:46:17.303Z,1383.75
2022-10-06T10:47:17.253Z,1383.75
2022-10-06T10:48:17.263Z,1355.63
2022-10-06T10:49:17.298Z,1361.25
2022-10-06T10:50:17.286Z,1366.88
2022-10-06T10:51:17.296Z,326.25
2022-10-06T10:52:17.308Z,1372.50
2022-10-06T10:54:17.331Z,1350.00
2022-10-06T10:55:17.341Z,1288.13
2022-10-06T10:56:17.348Z,1271.25
2022-10-06T10:57:17.358Z,1265.63
2022-10-06T10:58:17.373Z,1248.75
2022-10-06T10:59:17.379Z,1248.75
2022-10-06T11:00:17.390Z,1203.75
2022-10-06T11:01:17.454Z,1215.00
2022-10-06T11:02:17.523Z,1209.38
2022-10-06T11:03:17.419Z,1254.38
2022-10-06T11:04:17.436Z,1198.13
2022-10-06T11:05:17.473Z,1226.25
2022-10-06T11:06:17.451Z,1260.00
2022-10-06T11:07:17.463Z,1276.88
2022-10-06T11:08:17.474Z,1237.50
2022-10-06T11:09:17.477Z,382.50
2022-10-06T11:10:17.487Z,444.38
2022-10-06T11:11:17.496Z,1389.38
2022-10-06T11:12:17.504Z,495.00
2022-10-06T11:13:17.518Z,866.25
2022-10-06T11:14:17.528Z,714.38
2022-10-06T11:15:17.535Z,1383.75
2022-10-06T11:16:17.593Z,472.50
2022-10-06T11:17:17.551Z,444.38
2022-10-06T11:18:21.425Z,1175.63
2022-10-06T11:19:17.571Z,483.75
2022-10-06T11:20:17.575Z,765.00
2022-10-06T11:21:17.602Z,416.25
2022-10-06T11:22:17.603Z,686.25
2022-10-06T11:23:17.601Z,843.75
2022-10-06T11:24:17.613Z,635.63
2022-10-06T11:25:17.614Z,1310.63
2022-10-06T11:26:17.631Z,961.88
2022-10-06T11:27:17.635Z,1215.00
2022-10-06T11:28:17.736Z,1119.38
2022-10-06T11:29:17.657Z,1074.38
2022-10-06T11:30:17.660Z,1068.75
2022-10-06T11:31:21.986Z,1119.38
2022-10-06T11:32:17.680Z,1108.13
2022-10-06T11:33:17.682Z,1063.13
2022-10-06T11:34:17.694Z,1080.00
2022-10-06T11:35:17.698Z,1057.50
2022-10-06T11:36:17.707Z,978.75
2022-10-06T11:37:17.734Z,871.88
2022-10-06T11:38:17.724Z,793.13
2022-10-06T11:39:17.729Z,765.00
2022-10-06T11:40:17.744Z,658.13
2022-10-06T11:41:17.746Z,230.63
2022-10-06T11:42:17.776Z,219.38
2022-10-06T11:43:17.760Z,725.63
2022-10-06T11:44:17.770Z,646.88
2022-10-06T11:45:17.773Z,748.13
2022-10-06T11:46:17.847Z,331.88
2022-10-06T11:47:17.789Z,883.13
2022-10-06T11:48:17.792Z,478.13
2022-10-06T11:49:17.805Z,483.75
2022-10-06T11:50:17.810Z,528.75
2022-10-06T11:51:17.826Z,669.38
2022-10-06T11:52:17.832Z,433.13
2022-10-06T11:53:17.853Z,680.63
2022-10-06T11:54:17.836Z,753.75
2022-10-06T11:55:17.851Z,759.38
2022-10-06T11:56:17.875Z,742.50
2022-10-06T11:57:17.853Z,736.88
2022-10-06T11:58:40.753Z,736.88
2022-10-06T11:59:17.869Z,731.25
2022-10-06T12:00:17.882Z,680.63
2022-10-06T12:01:17.887Z,669.38
2022-10-06T12:02:18.056Z,652.50
2022-10-06T12:03:17.911Z,585.00
2022-10-06T12:04:23.445Z,517.50
2022-10-06T12:05:52.391Z,545.63
2022-10-06T12:06:17.914Z,556.88
2022-10-06T12:07:17.918Z,483.75
2022-10-06T12:08:17.928Z,466.88
2022-10-06T12:09:17.957Z,461.25
2022-10-06T12:10:17.938Z,461.25
2022-10-06T12:11:17.940Z,444.38
2022-10-06T12:12:17.948Z,495.00
2022-10-06T12:13:51.297Z,534.38
2022-10-06T12:17:19.703Z,399.38
2022-10-06T12:18:17.987Z,421.88
2022-10-06T12:19:17.987Z,461.25
2022-10-06T12:20:17.992Z,483.75
2022-10-06T12:21:18.001Z,461.25
2022-10-06T12:22:18.001Z,416.25
2022-10-06T12:23:18.007Z,393.75
2022-10-06T12:24:18.017Z,331.88
2022-10-06T12:25:18.055Z,298.13
2022-10-06T12:26:18.023Z,270.00
2022-10-06T12:27:20.724Z,264.38
2022-10-06T12:28:18.093Z,275.63
2022-10-06T12:29:18.038Z,275.63
2022-10-06T12:30:18.047Z,270.00
2022-10-06T12:31:18.633Z,303.75
2022-10-06T12:32:18.058Z,286.88
2022-10-06T12:33:18.054Z,241.88
2022-10-06T12:34:18.061Z,236.25
2022-10-06T12:35:18.073Z,236.25
2022-10-06T12:36:18.073Z,236.25
2022-10-06T12:37:18.078Z,236.25
2022-10-06T12:38:18.080Z,275.63
2022-10-06T12:39:18.088Z,292.50
2022-10-06T12:40:18.091Z,315.00
2022-10-06T12:41:18.124Z,343.13
2022-10-06T12:42:18.098Z,309.38
2022-10-06T12:43:18.117Z,281.25
2022-10-06T12:44:18.112Z,281.25
2022-10-06T12:45:18.116Z,281.25
2022-10-06T12:46:18.179Z,303.75
2022-10-06T12:47:18.123Z,298.13
2022-10-06T12:48:18.127Z,275.63
2022-10-06T12:49:18.129Z,270.00